createdAt,value
2023-05-08T00:00:32.601Z,10.60
2023-05-08T00:05:34.634Z,10.60
2023-05-08T00:10:37.162Z,10.60
2023-05-08T00:15:39.250Z,10.60
2023-05-08T00:20:41.958Z,10.60
2023-05-08T00:25:44.144Z,10.50
2023-05-08T00:30:46.259Z,10.50
2023-05-08T00:35:48.326Z,10.50
2023-05-08T00:40:50.321Z,10.40
2023-05-08T00:45:53.126Z,10.30
2023-05-08T00:50:56.707Z,10.30
2023-05-08T00:55:59.953Z,10.20
2023-05-08T01:01:02.072Z,10.10
2023-05-08T01:06:04.608Z,10.10
2023-05-08T01:11:26.115Z,10.00
2023-05-08T01:16:44.441Z,10.00
2023-05-08T01:21:54.214Z,10.00
2023-05-08T01:27:27.161Z,9.90
2023-05-08T01:32:37.177Z,9.80
2023-05-08T01:38:12.921Z,9.80
2023-05-08T01:43:29.887Z,9.70
2023-05-08T01:48:35.637Z,9.80
2023-05-08T01:53:43.122Z,9.70
2023-05-08T01:58:46.969Z,9.60
2023-05-08T02:03:52.003Z,9.60
2023-05-08T02:08:56.226Z,9.60
2023-05-08T02:14:01.686Z,9.60
2023-05-08T02:19:05.560Z,9.60
2023-05-08T02:24:09.056Z,9.60
2023-05-08T02:29:11.554Z,9.50
2023-05-08T02:34:16.569Z,9.60
2023-05-08T02:39:20.778Z,9.60
2023-05-08T02:44:23.081Z,9.60
2023-05-08T02:49:40.334Z,9.60
2023-05-08T02:54:49.907Z,9.50
2023-05-08T03:00:04.394Z,9.40
2023-05-08T03:05:17.039Z,9.40
2023-05-08T03:10:19.741Z,9.20
2023-05-08T03:15:28.514Z,9.30
2023-05-08T03:20:35.748Z,9.10
2023-05-08T03:25:39.955Z,9.10
2023-05-08T03:30:43.195Z,9.10
2023-05-08T03:35:49.959Z,9.00
2023-05-08T03:40:52.678Z,8.90
2023-05-08T03:45:56.700Z,8.80
2023-05-08T03:51:01.212Z,8.90
2023-05-08T03:56:03.618Z,8.90
2023-05-08T04:01:32.175Z,8.90
2023-05-08T04:06:53.491Z,8.90
2023-05-08T04:12:18.183Z,9.00
2023-05-08T04:17:34.984Z,9.10
2023-05-08T04:22:39.889Z,9.00
2023-05-08T04:27:43.791Z,9.10
2023-05-08T04:32:56.925Z,9.10
2023-05-08T04:37:59.866Z,9.00
2023-05-08T04:43:02.462Z,9.10
2023-05-08T04:48:05.145Z,9.10
2023-05-08T04:53:07.443Z,9.20
2023-05-08T04:58:13.384Z,9.30
2023-05-08T05:03:15.916Z,9.40
2023-05-08T05:08:18.619Z,9.60
2023-05-08T05:13:21.102Z,9.60
2023-05-08T05:18:23.918Z,9.60
2023-05-08T05:23:27.705Z,9.60
2023-05-08T05:28:29.953Z,9.70
2023-05-08T05:33:33.166Z,9.70
2023-05-08T05:38:35.350Z,9.80
2023-05-08T05:43:37.451Z,9.80
2023-05-08T05:48:39.709Z,9.90
2023-05-08T05:53:44.080Z,10.00
2023-05-08T05:58:46.393Z,10.10
2023-05-08T06:03:48.700Z,10.00
2023-05-08T06:08:50.893Z,9.90
2023-05-08T06:13:52.917Z,10.00
2023-05-08T06:18:54.987Z,10.20
2023-05-08T06:23:57.024Z,10.30
2023-05-08T06:28:59.018Z,10.50
2023-05-08T06:34:01.359Z,10.60
2023-05-08T06:39:06.349Z,10.70
2023-05-08T06:44:08.432Z,10.80
2023-05-08T06:49:10.742Z,11.00
2023-05-08T06:54:12.733Z,11.00
2023-05-08T06:59:14.737Z,11.00
2023-05-08T07:04:16.884Z,10.90
2023-05-08T07:09:18.989Z,11.00
2023-05-08T07:14:21.203Z,11.30
2023-05-08T07:19:23.208Z,11.50
2023-05-08T07:24:25.261Z,11.70
2023-05-08T07:29:27.757Z,11.90
2023-05-08T07:34:29.871Z,12.10
2023-05-08T07:39:32.017Z,12.10
2023-05-08T07:44:40.628Z,12.20
2023-05-08T07:49:45.613Z,12.40
2023-05-08T07:54:47.578Z,12.50
2023-05-08T07:59:49.594Z,12.70
2023-05-08T08:04:51.596Z,13.10
2023-05-08T08:09:53.695Z,13.30
2023-05-08T08:14:56.315Z,13.30
2023-05-08T08:19:58.439Z,13.70
2023-05-08T08:25:00.460Z,13.50
2023-05-08T08:30:15.590Z,13.80
2023-05-08T08:35:20.060Z,14.20
2023-05-08T08:40:22.656Z,14.20
2023-05-08T08:45:24.874Z,14.20
2023-05-08T08:50:29.993Z,14.40
2023-05-08T08:55:34.049Z,14.50
2023-05-08T09:00:37.414Z,14.60
2023-05-08T09:05:40.146Z,15.10
2023-05-08T09:10:42.561Z,14.90
2023-05-08T09:15:44.622Z,15.30
2023-05-08T09:20:47.258Z,15.50
2023-05-08T09:25:50.857Z,15.60
2023-05-08T09:30:59.040Z,18.80
2023-05-08T09:36:01.164Z,21.00
2023-05-08T09:41:16.925Z,22.90
2023-05-08T09:46:24.098Z,24.10
2023-05-08T09:51:27.669Z,23.80
2023-05-08T09:56:40.057Z,25.30
2023-05-08T10:01:42.277Z,24.20
2023-05-08T10:06:44.361Z,25.90
2023-05-08T10:11:55.610Z,25.20
2023-05-08T10:17:00.468Z,25.90
2023-05-08T10:22:04.661Z,25.60
2023-05-08T10:27:13.151Z,24.40
2023-05-08T10:32:19.195Z,24.40
2023-05-08T10:37:21.364Z,24.20
2023-05-08T10:42:23.573Z,25.30
2023-05-08T10:47:46.088Z,25.60
2023-05-08T10:52:55.030Z,25.60
2023-05-08T10:58:25.860Z,26.50
2023-05-08T11:03:32.764Z,28.10
2023-05-08T11:08:54.822Z,27.70
2023-05-08T11:14:12.242Z,26.60
2023-05-08T11:19:18.988Z,26.60
2023-05-08T11:24:34.851Z,24.70
2023-05-08T11:29:37.902Z,24.60
2023-05-08T11:34:43.444Z,25.80
2023-05-08T11:39:46.282Z,25.10
2023-05-08T11:44:48.322Z,24.30
2023-05-08T11:49:50.394Z,24.30
2023-05-08T11:54:52.440Z,25.60
2023-05-08T11:59:54.453Z,24.30
2023-05-08T12:04:56.583Z,23.80
2023-05-08T12:10:01.458Z,23.80
2023-05-08T12:15:15.634Z,24.60
2023-05-08T12:20:19.134Z,25.90
2023-05-08T12:25:21.690Z,26.50
2023-05-08T12:30:23.918Z,26.00
2023-05-08T12:35:26.486Z,26.40
2023-05-08T12:40:34.082Z,25.20
2023-05-08T12:45:41.232Z,25.10
2023-05-08T12:50:46.311Z,24.90
2023-05-08T12:55:57.226Z,24.70
2023-05-08T13:01:10.112Z,25.70
2023-05-08T13:06:22.459Z,24.40
2023-05-08T13:11:34.593Z,24.70
2023-05-08T13:16:47.926Z,24.70
2023-05-08T13:21:50.250Z,24.90
2023-05-08T13:26:52.312Z,25.20
2023-05-08T13:31:54.353Z,25.10
2023-05-08T13:36:56.528Z,26.10
2023-05-08T13:41:58.872Z,26.90
2023-05-08T13:47:01.033Z,26.60
2023-05-08T13:52:03.066Z,25.70
2023-05-08T13:57:05.076Z,25.80
2023-05-08T14:02:07.272Z,26.60
2023-05-08T14:07:09.361Z,26.90
2023-05-08T14:12:12.323Z,26.40
2023-05-08T14:17:14.501Z,26.80
2023-05-08T14:22:16.778Z,27.00
2023-05-08T14:27:19.048Z,27.40
2023-05-08T14:32:21.158Z,27.40
2023-05-08T14:37:23.316Z,26.90
2023-05-08T14:42:25.326Z,26.30
2023-05-08T14:47:27.396Z,25.90
2023-05-08T14:52:29.422Z,27.80
2023-05-08T14:57:31.495Z,29.90
2023-05-08T15:02:33.579Z,29.70
2023-05-08T15:07:36.559Z,29.40
2023-05-08T15:12:38.589Z,28.00
2023-05-08T15:17:41.650Z,27.30
2023-05-08T15:22:43.957Z,28.90
2023-05-08T15:27:46.220Z,29.30
2023-05-08T15:32:48.961Z,29.10
2023-05-08T15:37:51.042Z,28.90
2023-05-08T15:42:53.031Z,28.40
2023-05-08T15:47:55.034Z,31.40
2023-05-08T15:52:57.131Z,30.90
2023-05-08T15:57:59.154Z,30.40
2023-05-08T16:03:01.540Z,31.00
2023-05-08T16:08:03.679Z,30.90
2023-05-08T16:13:06.100Z,30.10
2023-05-08T16:18:08.625Z,29.90
2023-05-08T16:23:10.953Z,31.00
2023-05-08T16:28:12.951Z,29.70
2023-05-08T16:33:15.025Z,29.80
2023-05-08T16:38:17.228Z,30.10
2023-05-08T16:43:19.243Z,30.00
2023-05-08T16:48:21.457Z,30.40
2023-05-08T16:53:23.470Z,29.10
2023-05-08T16:58:27.215Z,29.60
2023-05-08T17:03:29.436Z,28.30
2023-05-08T17:08:31.659Z,27.40
2023-05-08T17:13:33.668Z,26.50
2023-05-08T17:18:35.940Z,27.40
2023-05-08T17:23:38.260Z,26.80
2023-05-08T17:28:40.346Z,26.00
2023-05-08T17:33:42.481Z,24.20
2023-05-08T17:38:46.123Z,23.20
2023-05-08T17:43:48.207Z,22.50
2023-05-08T17:48:50.294Z,22.30
2023-05-08T17:53:53.249Z,21.70
2023-05-08T17:58:55.785Z,21.30
2023-05-08T18:03:57.821Z,20.70
2023-05-08T18:08:59.988Z,20.50
2023-05-08T18:14:04.828Z,20.40
2023-05-08T18:19:07.097Z,20.20
2023-05-08T18:24:09.103Z,20.00
2023-05-08T18:29:11.215Z,19.70
2023-05-08T18:34:13.210Z,19.70
2023-05-08T18:39:15.402Z,19.60
2023-05-08T18:44:17.465Z,19.50
2023-05-08T18:49:19.572Z,19.20
2023-05-08T18:54:23.914Z,19.10
2023-05-08T18:59:26.093Z,19.00
2023-05-08T19:04:28.161Z,18.90
2023-05-08T19:09:30.246Z,18.70
2023-05-08T19:14:32.299Z,18.50
2023-05-08T19:19:34.601Z,18.40
2023-05-08T19:24:36.691Z,18.30
2023-05-08T19:29:38.741Z,18.20
2023-05-08T19:34:40.828Z,18.10
2023-05-08T19:39:42.960Z,18.00
2023-05-08T19:44:45.072Z,17.80
2023-05-08T19:49:47.070Z,17.90
2023-05-08T19:54:49.319Z,17.90
2023-05-08T19:59:51.515Z,17.70
2023-05-08T20:05:21.237Z,17.70
2023-05-08T20:10:15.783Z,17.50
2023-05-08T20:15:18.053Z,17.40
2023-05-08T20:20:20.355Z,17.30
2023-05-08T20:25:22.453Z,17.10
2023-05-08T20:30:24.768Z,16.90
2023-05-08T20:35:26.843Z,16.90
2023-05-08T20:40:28.919Z,16.80
2023-05-08T20:45:31.158Z,16.70
2023-05-08T20:50:33.251Z,16.80
2023-05-08T20:55:35.325Z,16.70
2023-05-08T21:00:37.456Z,16.70
2023-05-08T21:05:39.507Z,16.60
2023-05-08T21:10:41.524Z,16.60
2023-05-08T21:15:43.778Z,16.60
2023-05-08T21:20:50.131Z,16.50
2023-05-08T21:25:53.210Z,16.50
2023-05-08T21:30:55.398Z,16.50
2023-05-08T21:35:57.486Z,16.50
2023-05-08T21:41:08.543Z,16.30
2023-05-08T21:46:10.709Z,16.10
2023-05-08T21:51:12.797Z,16.00
2023-05-08T21:56:16.623Z,15.80
2023-05-08T22:01:18.732Z,15.70
2023-05-08T22:06:20.794Z,15.70
2023-05-08T22:11:22.852Z,15.60
2023-05-08T22:16:24.946Z,15.50
2023-05-08T22:21:30.169Z,15.40
2023-05-08T22:26:32.181Z,15.30
2023-05-08T22:31:34.318Z,15.20
2023-05-08T22:36:36.600Z,15.20
2023-05-08T22:41:39.333Z,15.10
2023-05-08T22:46:41.670Z,15.00
2023-05-08T22:51:43.759Z,15.00
2023-05-08T22:56:45.745Z,15.00
2023-05-08T23:01:47.800Z,14.90
2023-05-08T23:06:49.827Z,14.70
2023-05-08T23:11:51.963Z,14.60
2023-05-08T23:16:54.021Z,14.70
2023-05-08T23:21:56.612Z,14.50
2023-05-08T23:26:58.593Z,14.40
2023-05-08T23:32:00.930Z,14.40
2023-05-08T23:37:03.021Z,14.30
2023-05-08T23:42:05.134Z,14.30
2023-05-08T23:47:07.330Z,14.20
2023-05-08T23:52:10.297Z,14.20
2023-05-08T23:57:12.332Z,14.10
